Flight Track Log - Related Links

Times and Time Zones

All times are in EDT time to prevent confusion due to time zone crossing. See the SWA267 flight status page for this flight to view local times or setup timezone preferences in your user account.

Time Position Orientation Groundspeed Altitude Reporting Facility
EDT Latitude Longitude Course Direction KTS MPH feet Rate Location/Type
Sun 12:21:31 PM 36.9433 -76.1583 34° Northeast 194 223 2,700  Level Washington Center
Sun 12:22:20 PM 36.9850 -76.1353 24° Northeast 215 247 4,000 1,364 Climbing Washington Center
Sun 12:23:21 PM 37.0139 -76.2031 298° West 262 302 5,200 2,262 Climbing Washington Center
Sun 12:24:22 PM 37.0344 -76.2892 287° West 249 287 8,600 3,115 Climbing Washington Center
Sun 12:25:05 PM 37.0547 -76.3622 289° West 274 315 10,600 2,039 Climbing Washington Center
Sun 12:26:05 PM 37.0875 -76.4536 294° West 305 351 12,100 2,100 Climbing Washington Center
Sun 12:27:05 PM 37.1244 -76.5636 293° West 329 379 14,800 2,000 Climbing Washington Center
Sun 12:28:05 PM 37.1631 -76.6786 293° West 343 395 16,100 1,100 Climbing Washington Center
Sun 12:29:05 PM 37.2058 -76.7914 295° West 356 410 17,000 450 Climbing Washington Center
Sun 12:30:05 PM 37.2442 -76.8989 294° West 362 417 17,000  Level Washington Center
Sun 12:31:05 PM 37.2950 -77.0172 298° West 357 411 17,000  Level Washington Center
Sun 12:32:05 PM 37.3525 -77.1019 311° West 352 405 17,000  Level Washington Center
Sun 12:33:05 PM 37.4158 -77.1972 310° West 352 405 17,000  Level Washington Center
Sun 12:34:05 PM 37.4897 -77.2931 314° West 364 419 17,000  Level Washington Center
Sun 12:35:05 PM 37.6022 -77.2903 North 354 407 17,000  Level Washington Center
Sun 12:36:05 PM 37.7172 -77.2667 North 382 440 17,000  Level Washington Center
Sun 12:37:05 PM 37.8322 -77.2456 North 394 453 17,000  Level Washington Center
Sun 12:38:05 PM 37.9453 -77.2217 North 406 467 17,000  Level Washington Center
Sun 12:39:05 PM 38.0664 -77.2033 North 406 467 17,000  Level Washington Center
Sun 12:40:05 PM 38.1836 -77.1794 North 406 467 17,000 -400 Level Washington Center
Sun 12:41:05 PM 38.2839 -77.1550 11° North 416 479 16,200 -1,000 Descending Washington Center
Sun 12:42:05 PM 38.3989 -77.1469 North 391 450 15,000 -600 Descending Washington Center
Sun 12:43:05 PM 38.4886 -77.1381 North 354 407 15,000 -550 Level Washington Center
Sun 12:44:05 PM 38.5458 -77.0597 47° Northeast 283 326 13,900 -1,200 Descending Washington Center
Sun 12:45:05 PM 38.5886 -76.9675 59° Northeast 291 335 12,600 -1,486 Descending Washington Center
Sun 12:45:50 PM 38.6333 -76.8833 56° Northeast 317 365 11,300 -1,657 Descending Potomac TRACON
Sun 12:46:50 PM 38.6833 -76.8000 52° Northeast 307 353 9,700 -1,440 Descending Potomac TRACON
Sun 12:47:05 PM 38.6844 -76.7858 84° East 312 359 9,500 -1,096 Descending Washington Center
Sun 12:48:45 PM 38.7667 -76.6333 55° Northeast 280 322 7,600 -1,275 Descending Potomac TRACON
Sun 12:49:45 PM 38.8000 -76.5500 63° Northeast 275 316 6,100 -1,429 Descending Potomac TRACON
Sun 12:50:51 PM 38.8667 -76.5167 21° North 250 288 4,600 -1,041 Descending Potomac TRACON
Sun 12:51:46 PM 38.9333 -76.5167 360° North 233 268 4,000 -330 Descending Potomac TRACON
Sun 12:52:40 PM 38.9833 -76.5167 360° North 213 245 4,000 -365 Level Potomac TRACON
Sun 12:53:41 PM 39.0333 -76.5333 345° North 180 207 3,300 -793 Descending Potomac TRACON
Sun 12:54:41 PM 39.0667 -76.5833 311° West 168 193 2,400 -900 Descending Potomac TRACON
Sun 12:55:41 PM 39.1000 -76.6167 322° Northwest 154 177 1,500 -783 Descending Potomac TRACON
Sun 12:56:36 PM 39.1333 -76.6333 339° North 134 154 900 -655 Descending Potomac TRACON
Sun 12:58:00 PM 39.1667 -76.6667 339° North  Level FlightAware Approximate
Sun 01:05:00 PM 39.1754 -76.6683 339° North  Level Estimated
Sun 01:06:00 PM 39.1754 -76.6683 339° North  Level Estimated
Sun 01:07:00 PM 39.1754 -76.6683 339° North  Level Estimated
Sun 01:08:00 PM 39.1754 -76.6683 339° North  Level Estimated

Login

Don't have an account? Register now (free) for customized features, flight alerts, and more!